Time;durP1;ratioP1;P1;durP2;ratioP2;P2;SDS_P1;SDS_P2;PMS_P1;PMS_P2;Temp;Humidity;BMP_temperature;BMP_pressure;BME280_temperature;BME280_humidity;BME280_pressure;Samples;Min_cycle;Max_cycle;Signal;HPM_P1;HPM_P2
2023/04/07 00:00:59;;;;;;;5.53;4.07;;;10.10;99.90;;;;;;7391498;19;20135;-72
2023/04/07 00:03:24;;;;;;;6.30;5.00;;;10.10;99.90;;;;;;7391081;19;20655;-73
2023/04/07 00:05:50;;;;;;;8.93;4.83;;;10.10;99.90;;;;;;7388262;19;20132;-71
2023/04/07 00:08:16;;;;;;;5.60;4.13;;;9.90;99.90;;;;;;7391908;19;20157;-72
2023/04/07 00:10:42;;;;;;;6.57;4.70;;;10.00;99.90;;;;;;7388360;19;20230;-71
2023/04/07 00:13:07;;;;;;;8.37;4.90;;;10.00;99.90;;;;;;7388932;19;20138;-72
2023/04/07 00:15:33;;;;;;;6.47;4.67;;;10.00;99.90;;;;;;7389213;19;20130;-73
2023/04/07 00:17:59;;;;;;;6.27;4.43;;;10.00;99.90;;;;;;7389113;19;20131;-73
2023/04/07 00:20:24;;;;;;;6.13;4.53;;;10.00;99.90;;;;;;7389238;19;20150;-72
2023/04/07 00:22:50;;;;;;;7.50;4.90;;;9.90;99.90;;;;;;7389378;19;20152;-72
2023/04/07 00:25:17;;;;;;;6.70;5.00;;;10.00;99.90;;;;;;7389053;19;20222;-73
2023/04/07 00:27:43;;;;;;;8.27;5.10;;;9.90;99.90;;;;;;7390485;19;20145;-72
2023/04/07 00:30:09;;;;;;;7.23;4.63;;;9.90;99.90;;;;;;7390444;19;20498;-73
2023/04/07 00:32:35;;;;;;;6.07;4.27;;;10.00;99.90;;;;;;7388895;19;20142;-73
2023/04/07 00:35:01;;;;;;;5.83;4.23;;;9.90;99.90;;;;;;7388580;19;20271;-73
2023/04/07 00:37:26;;;;;;;6.73;4.43;;;10.00;99.90;;;;;;7389631;19;20135;-73
2023/04/07 00:39:52;;;;;;;7.83;4.83;;;10.00;99.90;;;;;;7387818;19;20617;-73
2023/04/07 00:42:20;;;;;;;5.93;4.43;;;9.90;99.90;;;;;;7389348;19;20134;-73
2023/04/07 00:44:47;;;;;;;6.83;4.90;;;10.00;99.90;;;;;;7386657;19;20158;-73
2023/04/07 00:47:14;;;;;;;6.47;4.27;;;9.60;99.90;;;;;;7390782;19;20134;-73
2023/04/07 00:49:40;;;;;;;5.60;4.27;;;9.60;99.90;;;;;;7391373;19;20127;-75
2023/04/07 00:52:06;;;;;;;5.37;4.00;;;9.70;99.90;;;;;;7389452;19;20210;-74
2023/04/07 00:54:32;;;;;;;6.37;3.93;;;9.90;99.90;;;;;;7387682;19;20508;-73
2023/04/07 00:56:58;;;;;;;7.60;4.23;;;9.90;99.90;;;;;;7390879;19;20136;-73
2023/04/07 00:59:24;;;;;;;5.17;3.70;;;9.90;99.90;;;;;;7388274;19;20609;-75
2023/04/07 01:01:55;;;;;;;5.17;4.23;;;9.90;99.90;;;;;;7390657;19;20127;-71
2023/04/07 01:04:34;;;;;;;6.77;4.57;;;9.90;99.90;;;;;;7388633;19;20171;-72
2023/04/07 01:07:39;;;;;;;4.93;4.10;;;9.90;99.90;;;;;;7387200;19;20206;-72
2023/04/07 01:10:07;;;;;;;6.20;4.27;;;9.90;99.90;;;;;;7387000;19;20259;-71
2023/04/07 01:13:14;;;;;;;7.60;4.40;;;9.90;99.90;;;;;;7387728;19;20158;-72
2023/04/07 01:15:41;;;;;;;6.97;4.60;;;9.60;99.90;;;;;;7385134;19;20145;-71
2023/04/07 01:18:19;;;;;;;5.27;4.00;;;9.70;99.90;;;;;;7388468;19;20138;-71
2023/04/07 01:20:50;;;;;;;6.03;4.37;;;9.70;99.90;;;;;;7389714;19;20142;-72
2023/04/07 01:23:45;;;;;;;5.80;3.83;;;9.70;99.90;;;;;;7386699;19;20138;-71
2023/04/07 01:26:25;;;;;;;5.73;4.50;;;9.70;99.90;;;;;;7389273;19;20728;-71
2023/04/07 01:28:51;;;;;;;6.73;4.27;;;9.70;99.90;;;;;;7388210;19;20154;-70
2023/04/07 01:31:16;;;;;;;7.03;4.93;;;9.70;99.90;;;;;;7389764;19;20134;-73
2023/04/07 01:33:45;;;;;;;6.43;4.70;;;9.70;99.90;;;;;;7387294;19;20211;-71
2023/04/07 01:36:12;;;;;;;5.80;4.20;;;9.70;99.90;;;;;;7390915;19;20217;-71
2023/04/07 01:38:38;;;;;;;6.20;4.33;;;9.60;99.90;;;;;;7387545;19;20558;-71
2023/04/07 01:41:06;;;;;;;4.97;4.10;;;9.50;99.90;;;;;;7387668;19;20174;-71
2023/04/07 01:43:32;;;;;;;6.43;4.47;;;9.60;99.90;;;;;;7387862;19;20131;-71
2023/04/07 01:45:59;;;;;;;6.10;4.23;;;9.70;99.90;;;;;;7385547;19;20197;-71
2023/04/07 01:48:25;;;;;;;4.80;3.90;;;9.60;99.90;;;;;;7385453;19;20599;-71
2023/04/07 01:50:51;;;;;;;5.57;4.30;;;9.70;99.90;;;;;;7380056;19;20778;-72
2023/04/07 01:53:17;;;;;;;5.83;4.27;;;9.60;99.90;;;;;;7385965;19;20138;-71
2023/04/07 01:55:43;;;;;;;4.90;4.03;;;9.70;99.90;;;;;;7389003;19;20956;-71
2023/04/07 01:58:09;;;;;;;6.50;4.47;;;9.60;99.90;;;;;;7386755;19;20146;-71
2023/04/07 02:00:35;;;;;;;5.53;4.13;;;9.60;99.90;;;;;;7386548;19;20135;-71
2023/04/07 02:03:22;;;;;;;6.07;4.40;;;9.70;99.90;;;;;;7386816;19;20150;-72
2023/04/07 02:05:53;;;;;;;6.07;4.43;;;9.60;99.90;;;;;;7384059;19;20674;-71
2023/04/07 02:08:23;;;;;;;8.50;5.00;;;9.70;99.90;;;;;;7386251;19;20575;-71
2023/04/07 02:10:50;;;;;;;5.73;4.07;;;9.70;99.90;;;;;;7388053;19;20497;-71
2023/04/07 02:13:19;;;;;;;6.77;4.60;;;9.80;99.90;;;;;;7384289;19;20163;-71
2023/04/07 02:15:45;;;;;;;5.70;4.43;;;9.80;99.90;;;;;;7386419;19;20150;-72
2023/04/07 02:18:14;;;;;;;6.63;4.33;;;9.80;99.90;;;;;;7385302;19;20146;-71
2023/04/07 02:20:42;;;;;;;9.40;5.10;;;9.80;99.90;;;;;;7385549;19;20126;-71
2023/04/07 02:23:08;;;;;;;7.33;4.53;;;9.80;99.90;;;;;;7385444;19;20675;-72
2023/04/07 02:25:36;;;;;;;5.90;4.17;;;9.80;99.90;;;;;;7386513;19;20151;-72
2023/04/07 02:28:03;;;;;;;5.90;4.50;;;9.80;99.90;;;;;;7384229;19;20150;-72
2023/04/07 02:30:30;;;;;;;6.37;4.20;;;9.90;99.90;;;;;;7389739;19;20129;-71
2023/04/07 02:32:56;;;;;;;7.43;4.77;;;9.80;99.90;;;;;;7384955;19;20134;-72
2023/04/07 02:35:22;;;;;;;6.80;5.00;;;9.80;99.90;;;;;;7389749;19;20146;-72
2023/04/07 02:37:48;;;;;;;6.27;4.17;;;9.70;99.90;;;;;;7393439;19;20161;-71
2023/04/07 02:40:15;;;;;;;8.23;4.37;;;9.70;99.90;;;;;;7393356;19;20490;-71
2023/04/07 02:42:41;;;;;;;6.97;4.47;;;9.80;99.90;;;;;;7392617;19;20610;-70
2023/04/07 02:45:08;;;;;;;5.93;4.47;;;9.80;99.90;;;;;;7392997;19;20146;-70
2023/04/07 02:47:35;;;;;;;8.30;4.87;;;9.70;99.90;;;;;;7392506;19;20170;-71
2023/04/07 02:50:01;;;;;;;5.93;4.50;;;9.60;99.90;;;;;;7394673;19;20130;-72
2023/04/07 02:52:27;;;;;;;6.73;4.17;;;9.60;99.90;;;;;;7391477;19;20127;-72
2023/04/07 02:54:53;;;;;;;6.07;4.37;;;9.40;99.90;;;;;;7386944;19;20551;-72
2023/04/07 02:57:19;;;;;;;6.00;4.57;;;9.50;99.90;;;;;;7392581;19;20615;-72
2023/04/07 02:59:44;;;;;;;6.57;4.20;;;9.50;99.90;;;;;;7395585;19;20484;-71
2023/04/07 03:02:10;;;;;;;6.07;4.53;;;9.70;99.90;;;;;;7392806;19;20158;-72
2023/04/07 03:04:36;;;;;;;6.07;4.60;;;9.80;99.90;;;;;;7392186;19;20167;-72
2023/04/07 03:07:02;;;;;;;7.27;4.53;;;9.90;99.90;;;;;;7394671;19;20139;-72
2023/04/07 03:09:27;;;;;;;6.83;4.87;;;9.90;99.90;;;;;;7390575;19;20153;-72
2023/04/07 03:11:53;;;;;;;7.13;4.93;;;9.90;99.90;;;;;;7393262;19;20134;-72
2023/04/07 03:14:19;;;;;;;8.97;5.50;;;9.70;99.90;;;;;;7394824;19;20154;-72
2023/04/07 03:16:45;;;;;;;7.03;4.80;;;9.80;99.90;;;;;;7391994;19;20489;-71
2023/04/07 03:19:11;;;;;;;7.50;5.33;;;9.90;99.90;;;;;;7393630;19;20134;-70
2023/04/07 03:21:38;;;;;;;6.33;4.90;;;9.90;99.90;;;;;;7390408;19;20701;-71
2023/04/07 03:24:05;;;;;;;6.67;5.10;;;9.90;99.90;;;;;;7392276;19;20158;-71
2023/04/07 03:26:31;;;;;;;7.93;5.77;;;9.80;99.90;;;;;;7390013;19;20147;-71
2023/04/07 03:28:57;;;;;;;7.77;4.67;;;9.80;99.90;;;;;;7392768;19;20141;-71
2023/04/07 03:31:24;;;;;;;5.73;4.40;;;9.70;99.90;;;;;;7392849;19;20169;-71
2023/04/07 03:33:50;;;;;;;8.37;5.03;;;9.70;99.90;;;;;;7393192;19;20492;-71
2023/04/07 03:36:17;;;;;;;8.23;5.17;;;9.70;99.90;;;;;;7392978;19;20154;-71
2023/04/07 03:38:43;;;;;;;6.57;4.67;;;9.60;99.90;;;;;;7392559;19;20498;-71
2023/04/07 03:41:09;;;;;;;7.93;5.07;;;9.60;99.90;;;;;;7391400;19;20150;-71
2023/04/07 03:43:35;;;;;;;6.33;4.47;;;9.70;99.90;;;;;;7391351;19;20123;-72
2023/04/07 03:46:01;;;;;;;6.07;4.20;;;9.80;99.90;;;;;;7388683;19;20127;-72
2023/04/07 03:48:27;;;;;;;7.10;4.87;;;9.80;99.90;;;;;;7387974;19;20819;-71
2023/04/07 03:50:52;;;;;;;6.77;4.60;;;9.90;99.90;;;;;;7390405;19;20213;-71
2023/04/07 03:53:18;;;;;;;8.23;4.87;;;9.90;99.90;;;;;;7391967;19;20142;-71
2023/04/07 03:55:44;;;;;;;7.63;4.73;;;9.90;99.90;;;;;;7391787;19;20138;-72
2023/04/07 03:58:10;;;;;;;7.10;5.27;;;9.90;99.90;;;;;;7392378;19;20135;-72
2023/04/07 04:00:36;;;;;;;7.17;5.03;;;10.00;99.90;;;;;;7389121;19;20554;-72
2023/04/07 04:03:02;;;;;;;5.60;4.47;;;10.00;99.90;;;;;;7390702;19;20150;-71
2023/04/07 04:05:28;;;;;;;7.27;4.93;;;10.00;99.90;;;;;;7390012;19;20173;-71
2023/04/07 04:07:54;;;;;;;5.97;4.90;;;10.10;99.90;;;;;;7391564;19;20138;-71
2023/04/07 04:10:20;;;;;;;6.73;4.77;;;10.10;99.90;;;;;;7390901;19;20153;-71
2023/04/07 04:12:47;;;;;;;6.37;5.23;;;10.10;99.90;;;;;;7392115;19;20142;-71
2023/04/07 04:15:13;;;;;;;6.33;4.70;;;10.10;99.90;;;;;;7390710;19;20134;-70
2023/04/07 04:17:40;;;;;;;8.30;4.90;;;10.10;99.90;;;;;;7389625;19;20567;-72
2023/04/07 04:20:06;;;;;;;6.67;5.00;;;10.10;99.90;;;;;;7389823;19;20483;-72
2023/04/07 04:22:32;;;;;;;8.77;5.20;;;10.00;99.90;;;;;;7390339;19;20138;-71
2023/04/07 04:24:58;;;;;;;8.50;5.57;;;10.10;99.90;;;;;;7387918;19;20134;-71
2023/04/07 04:27:24;;;;;;;8.80;5.90;;;10.00;99.90;;;;;;7389869;19;20154;-71
2023/04/07 04:29:50;;;;;;;9.30;5.40;;;9.90;99.90;;;;;;7390792;19;20125;-71
2023/04/07 04:32:16;;;;;;;8.00;5.20;;;9.90;99.90;;;;;;7391514;19;20142;-71
2023/04/07 04:34:42;;;;;;;6.73;5.10;;;9.90;99.90;;;;;;7388429;19;20138;-70
2023/04/07 04:37:08;;;;;;;6.80;4.97;;;9.80;99.90;;;;;;7391226;19;20134;-71
2023/04/07 04:39:34;;;;;;;7.33;5.30;;;9.90;99.90;;;;;;7389465;19;20335;-71
2023/04/07 04:42:00;;;;;;;7.80;5.00;;;9.90;99.90;;;;;;7386553;19;20178;-72
2023/04/07 04:44:26;;;;;;;6.30;4.60;;;9.90;99.90;;;;;;7388711;19;20150;-71
2023/04/07 04:46:52;;;;;;;7.37;5.70;;;9.80;99.90;;;;;;7386141;19;20142;-71
2023/04/07 04:49:20;;;;;;;7.27;5.20;;;9.70;99.90;;;;;;7386866;19;20139;-71
2023/04/07 04:51:46;;;;;;;8.27;5.83;;;9.30;99.90;;;;;;7389856;19;20144;-72
2023/04/07 04:54:12;;;;;;;5.80;4.70;;;9.40;99.90;;;;;;7387811;19;20198;-71
2023/04/07 04:56:38;;;;;;;6.37;4.87;;;9.60;99.90;;;;;;7387524;19;20166;-70
2023/04/07 04:59:04;;;;;;;7.97;4.97;;;9.70;99.90;;;;;;7388829;19;20131;-71
2023/04/07 05:01:29;;;;;;;6.80;5.33;;;9.70;99.90;;;;;;7388856;19;20142;-71
2023/04/07 05:03:55;;;;;;;8.57;5.10;;;9.50;99.90;;;;;;7387550;19;20157;-71
2023/04/07 05:06:21;;;;;;;8.43;6.20;;;9.50;99.90;;;;;;7388841;19;20135;-71
2023/04/07 05:08:47;;;;;;;6.37;5.10;;;9.50;99.90;;;;;;7387339;19;20243;-71
2023/04/07 05:11:13;;;;;;;8.10;5.50;;;9.70;99.90;;;;;;7388300;19;20175;-71
2023/04/07 05:13:39;;;;;;;7.70;4.97;;;9.80;99.90;;;;;;7388421;19;20142;-71
2023/04/07 05:16:05;;;;;;;6.70;5.07;;;9.80;99.90;;;;;;7388966;19;20142;-72
2023/04/07 05:18:31;;;;;;;7.90;5.03;;;9.40;99.90;;;;;;7388726;19;20143;-71
2023/04/07 05:20:57;;;;;;;8.27;5.50;;;9.40;99.90;;;;;;7388050;19;20767;-71
2023/04/07 05:23:22;;;;;;;6.80;5.47;;;9.40;99.90;;;;;;7388240;19;20158;-72
2023/04/07 05:25:49;;;;;;;7.07;5.33;;;9.60;99.90;;;;;;7389128;19;20142;-72
2023/04/07 05:28:15;;;;;;;8.43;4.97;;;9.50;99.90;;;;;;7388276;19;20139;-71
2023/04/07 05:30:40;;;;;;;7.67;4.40;;;9.60;99.90;;;;;;7387114;19;20159;-71
2023/04/07 05:33:06;;;;;;;7.93;5.37;;;9.70;99.90;;;;;;7387014;19;20176;-71
2023/04/07 05:35:32;;;;;;;8.60;6.37;;;9.80;99.90;;;;;;7388469;19;20525;-72
2023/04/07 05:37:58;;;;;;;8.87;5.73;;;9.60;99.90;;;;;;7386189;19;20134;-71
2023/04/07 05:40:24;;;;;;;7.23;5.77;;;9.70;99.90;;;;;;7386886;19;20142;-69
2023/04/07 05:42:50;;;;;;;7.77;5.63;;;9.80;99.90;;;;;;7384648;19;20610;-71
2023/04/07 05:45:15;;;;;;;8.23;5.30;;;9.90;99.90;;;;;;7387601;19;20134;-71
2023/04/07 05:47:41;;;;;;;8.10;6.10;;;9.90;99.90;;;;;;7386060;19;20148;-72
2023/04/07 05:50:07;;;;;;;7.47;5.60;;;10.00;99.90;;;;;;7386589;19;20135;-72
2023/04/07 05:52:33;;;;;;;9.20;5.70;;;10.00;99.90;;;;;;7385600;19;20133;-71
2023/04/07 05:54:59;;;;;;;8.63;6.07;;;10.00;99.90;;;;;;7387804;19;20201;-71
2023/04/07 05:57:26;;;;;;;9.33;5.50;;;9.80;99.90;;;;;;7386600;19;20146;-72
2023/04/07 05:59:53;;;;;;;7.03;5.37;;;9.70;99.90;;;;;;7388663;19;20131;-71
2023/04/07 06:02:18;;;;;;;7.03;5.57;;;9.90;99.90;;;;;;7384141;19;20146;-71
2023/04/07 06:04:45;;;;;;;8.03;5.43;;;10.10;99.90;;;;;;7386961;19;20134;-72
2023/04/07 06:07:10;;;;;;;8.13;6.17;;;10.10;99.90;;;;;;7386550;19;20131;-71
2023/04/07 06:09:36;;;;;;;7.73;5.57;;;10.10;99.90;;;;;;7388332;19;20134;-71
2023/04/07 06:12:04;;;;;;;7.43;5.57;;;10.10;99.90;;;;;;7390891;19;20520;-70
2023/04/07 06:14:29;;;;;;;8.53;5.77;;;10.20;99.90;;;;;;7394580;19;20134;-71
2023/04/07 06:16:55;;;;;;;7.93;5.10;;;10.20;99.90;;;;;;7395575;19;20151;-71
2023/04/07 06:19:21;;;;;;;6.93;5.20;;;10.10;99.90;;;;;;7396054;19;20754;-71
2023/04/07 06:21:47;;;;;;;7.23;5.27;;;10.20;99.90;;;;;;7392600;19;20223;-71
2023/04/07 06:24:13;;;;;;;7.13;5.00;;;10.20;99.90;;;;;;7393137;19;20134;-70
2023/04/07 06:26:39;;;;;;;7.77;5.67;;;10.20;99.90;;;;;;7390627;19;20141;-71
2023/04/07 06:29:05;;;;;;;9.20;5.90;;;10.30;99.90;;;;;;7388650;19;20138;-73
2023/04/07 06:31:31;;;;;;;6.87;5.03;;;10.20;99.90;;;;;;7391287;19;20246;-71
2023/04/07 06:33:56;;;;;;;8.13;5.63;;;10.20;99.90;;;;;;7391232;19;20612;-72
2023/04/07 06:36:22;;;;;;;8.23;5.20;;;10.20;99.90;;;;;;7391702;19;20146;-71
2023/04/07 06:38:48;;;;;;;7.83;5.73;;;10.30;99.90;;;;;;7393257;19;20126;-73
2023/04/07 06:41:16;;;;;;;6.90;5.50;;;10.40;99.90;;;;;;7390772;19;20202;-73
2023/04/07 06:43:43;;;;;;;7.70;5.53;;;10.30;99.90;;;;;;7394582;19;20138;-72
2023/04/07 06:46:08;;;;;;;6.43;4.80;;;10.40;99.90;;;;;;7388887;19;20139;-72
2023/04/07 06:48:34;;;;;;;8.07;5.73;;;10.30;99.90;;;;;;7394098;19;20155;-72
2023/04/07 06:51:00;;;;;;;6.83;5.37;;;10.30;99.90;;;;;;7389196;19;20134;-72
2023/04/07 06:53:26;;;;;;;9.27;6.00;;;10.30;99.90;;;;;;7390698;19;20139;-72
2023/04/07 06:56:08;;;;;;;7.77;5.40;;;10.40;99.90;;;;;;7391159;19;20194;-71
2023/04/07 06:58:35;;;;;;;7.60;5.43;;;10.40;99.90;;;;;;7392118;19;20138;-73
2023/04/07 07:01:01;;;;;;;6.83;5.00;;;10.50;99.90;;;;;;7392299;19;20149;-72
2023/04/07 07:03:28;;;;;;;7.13;5.50;;;10.50;99.90;;;;;;7390476;19;20143;-72
2023/04/07 07:05:59;;;;;;;7.17;5.77;;;10.30;99.90;;;;;;7390690;19;20150;-72
2023/04/07 07:08:26;;;;;;;11.07;6.80;;;10.40;99.90;;;;;;7391012;19;20139;-72
2023/04/07 07:10:53;;;;;;;8.93;6.30;;;10.50;99.90;;;;;;7391322;19;20166;-72
2023/04/07 07:13:22;;;;;;;9.57;6.57;;;10.40;99.90;;;;;;7392889;19;20135;-73
2023/04/07 07:15:48;;;;;;;9.23;6.37;;;10.50;99.90;;;;;;7392841;19;20166;-72
2023/04/07 07:18:14;;;;;;;7.27;5.43;;;10.60;99.90;;;;;;7394582;19;20135;-75
2023/04/07 07:20:40;;;;;;;7.90;5.53;;;10.80;99.90;;;;;;7390428;19;20213;-72
2023/04/07 07:23:06;;;;;;;7.63;4.97;;;10.90;99.90;;;;;;7392669;19;20152;-73
2023/04/07 07:25:32;;;;;;;7.10;4.93;;;10.90;99.90;;;;;;7390352;19;20149;-72
2023/04/07 07:27:57;;;;;;;8.37;5.43;;;10.90;99.90;;;;;;7389402;19;20145;-71
2023/04/07 07:30:23;;;;;;;8.27;5.43;;;11.00;99.90;;;;;;7392281;19;20151;-71
2023/04/07 07:32:50;;;;;;;7.13;5.13;;;11.10;99.90;;;;;;7392241;19;20480;-72
2023/04/07 07:35:15;;;;;;;9.60;5.30;;;11.10;99.90;;;;;;7392501;19;20613;-71
2023/04/07 07:37:43;;;;;;;7.77;5.93;;;11.20;99.90;;;;;;7388821;19;20150;-72
2023/04/07 07:40:09;;;;;;;7.60;5.00;;;11.20;99.90;;;;;;7390753;19;20155;-73
2023/04/07 07:42:36;;;;;;;7.77;5.17;;;11.30;99.90;;;;;;7389486;19;20517;-72
2023/04/07 07:45:01;;;;;;;6.83;4.90;;;11.40;99.90;;;;;;7394132;19;20147;-71
2023/04/07 07:47:27;;;;;;;6.30;5.00;;;11.00;99.90;;;;;;7390877;19;20135;-71
2023/04/07 07:49:53;;;;;;;7.80;5.53;;;11.10;99.90;;;;;;7391576;19;20599;-72
2023/04/07 07:52:21;;;;;;;8.27;5.27;;;11.40;99.90;;;;;;7390280;19;20170;-70
2023/04/07 07:54:48;;;;;;;6.60;5.40;;;11.60;99.90;;;;;;7391999;19;20154;-70
2023/04/07 07:57:14;;;;;;;8.18;5.43;;;11.80;99.90;;;;;;7390549;19;20253;-71
2023/04/07 07:59:40;;;;;;;8.27;5.57;;;11.90;99.90;;;;;;7392809;19;20152;-70
2023/04/07 08:02:06;;;;;;;7.23;5.43;;;12.20;99.90;;;;;;7389549;19;20150;-71
2023/04/07 08:04:32;;;;;;;7.37;5.47;;;13.00;99.90;;;;;;7393132;19;20135;-71
2023/04/07 08:06:58;;;;;;;5.70;4.75;;;13.70;99.90;;;;;;7389992;19;20137;-70
2023/04/07 08:09:24;;;;;;;9.77;6.70;;;14.10;99.90;;;;;;7390847;19;20150;-70
2023/04/07 08:11:50;;;;;;;11.55;7.80;;;14.60;99.90;;;;;;7391431;19;20134;-71
2023/04/07 08:14:16;;;;;;;7.57;6.05;;;14.80;99.90;;;;;;7388023;19;20151;-71
2023/04/07 08:16:42;;;;;;;9.18;6.45;;;15.00;99.90;;;;;;7388665;19;20131;-73
2023/04/07 08:19:08;;;;;;;7.07;5.35;;;14.80;99.90;;;;;;7391308;19;20560;-72
2023/04/07 08:21:34;;;;;;;8.70;5.65;;;14.40;99.90;;;;;;7387590;19;20150;-73
2023/04/07 08:24:01;;;;;;;7.63;5.30;;;14.10;99.90;;;;;;7389313;19;20146;-72
2023/04/07 08:26:26;;;;;;;6.53;4.97;;;13.70;99.90;;;;;;7389332;19;20135;-73
2023/04/07 08:28:52;;;;;;;6.00;4.77;;;13.40;99.90;;;;;;7389556;19;20143;-73
2023/04/07 08:31:18;;;;;;;6.87;4.63;;;13.10;99.90;;;;;;7389553;19;20130;-73
2023/04/07 08:33:45;;;;;;;6.57;3.92;;;12.90;99.90;;;;;;7387088;19;20164;-73
2023/04/07 08:36:15;;;;;;;5.33;4.20;;;12.60;99.90;;;;;;7389350;19;20840;-72
2023/04/07 08:38:41;;;;;;;5.63;4.50;;;13.10;99.90;;;;;;7387933;19;20402;-71
2023/04/07 08:41:11;;;;;;;7.75;5.05;;;13.40;99.90;;;;;;7387136;19;20543;-73
2023/04/07 08:43:38;;;;;;;6.73;4.47;;;13.30;99.90;;;;;;7389512;19;20138;-72
2023/04/07 08:46:05;;;;;;;7.10;4.40;;;13.10;99.90;;;;;;7386412;19;20150;-73
2023/04/07 08:48:34;;;;;;;9.13;4.33;;;13.10;99.90;;;;;;7387650;19;20142;-72
2023/04/07 08:51:08;;;;;;;7.53;4.27;;;13.00;99.90;;;;;;7387653;19;20134;-72
2023/04/07 08:53:50;;;;;;;6.97;4.20;;;12.90;99.90;;;;;;7389124;19;20479;-73
2023/04/07 08:56:17;;;;;;;6.03;4.37;;;12.90;99.90;;;;;;7391100;19;20142;-72
2023/04/07 08:58:44;;;;;;;5.93;4.20;;;13.00;99.90;;;;;;7387385;19;20582;-71
2023/04/07 09:01:11;;;;;;;6.13;4.60;;;13.30;99.90;;;;;;7387420;19;20591;-71
2023/04/07 09:03:38;;;;;;;6.15;4.15;;;13.40;99.90;;;;;;7387229;19;20169;-71
2023/04/07 09:06:04;;;;;;;5.57;3.90;;;13.40;99.90;;;;;;7388235;19;20187;-70
2023/04/07 09:08:30;;;;;;;7.13;4.57;;;13.30;99.90;;;;;;7388515;19;20142;-71
2023/04/07 09:10:56;;;;;;;6.40;4.03;;;13.20;99.90;;;;;;7386944;19;20150;-73
2023/04/07 09:13:24;;;;;;;5.32;4.07;;;13.20;99.90;;;;;;7387270;19;20607;-71
2023/04/07 09:15:50;;;;;;;6.45;4.13;;;13.40;99.90;;;;;;7386605;19;20162;-72
2023/04/07 09:18:16;;;;;;;5.50;3.90;;;13.70;99.90;;;;;;7387101;19;20607;-71
2023/04/07 09:21:02;;;;;;;5.00;3.80;;;13.80;99.90;;;;;;7387717;19;20430;-71
2023/04/07 09:23:33;;;;;;;6.07;4.40;;;13.80;99.90;;;;;;7386847;19;20138;-72
2023/04/07 09:26:17;;;;;;;5.15;4.30;;;13.50;99.90;;;;;;7387076;19;20800;-70
2023/04/07 09:28:47;;;;;;;5.68;3.88;;;13.30;99.90;;;;;;7387759;19;20154;-71
2023/04/07 09:31:13;;;;;;;5.23;3.70;;;13.20;99.90;;;;;;7386694;19;20147;-70
2023/04/07 09:33:39;;;;;;;6.10;4.43;;;13.50;99.90;;;;;;7386986;19;20138;-73
2023/04/07 09:36:06;;;;;;;4.93;3.88;;;13.50;99.90;;;;;;7387722;19;20127;-72
2023/04/07 09:38:33;;;;;;;5.07;4.05;;;13.50;99.90;;;;;;7386574;19;20258;-71
2023/04/07 09:41:15;;;;;;;7.75;4.32;;;13.60;99.90;;;;;;7385034;19;20493;-72
2023/04/07 09:43:47;;;;;;;5.50;3.78;;;13.60;99.90;;;;;;7386538;19;20135;-73
2023/04/07 09:46:17;;;;;;;5.27;3.83;;;13.50;99.90;;;;;;7382347;19;20119;-71
2023/04/07 09:48:45;;;;;;;6.13;4.10;;;13.40;99.90;;;;;;7386909;19;20143;-72
2023/04/07 09:51:16;;;;;;;5.05;3.80;;;13.30;99.90;;;;;;7386486;19;20134;-72
2023/04/07 09:53:52;;;;;;;5.93;4.10;;;13.30;99.90;;;;;;7386646;19;20490;-71
2023/04/07 09:56:21;;;;;;;6.55;4.35;;;13.40;99.90;;;;;;7383780;19;20153;-71
2023/04/07 09:58:50;;;;;;;4.88;3.63;;;13.50;99.90;;;;;;7385088;19;20146;-72
2023/04/07 10:01:16;;;;;;;5.40;3.92;;;13.20;99.90;;;;;;7383763;19;20165;-72
2023/04/07 10:03:45;;;;;;;5.50;3.72;;;13.30;99.90;;;;;;7386854;19;20155;-72
2023/04/07 10:06:11;;;;;;;5.80;4.10;;;13.40;99.90;;;;;;7382604;19;20130;-76
2023/04/07 10:08:39;;;;;;;4.90;3.67;;;13.50;99.90;;;;;;7386367;19;20158;-71
2023/04/07 10:11:05;;;;;;;4.50;3.20;;;13.50;99.90;;;;;;7385731;19;20150;-72
2023/04/07 10:13:36;;;;;;;5.15;3.63;;;13.50;99.90;;;;;;7385707;19;20712;-71
2023/04/07 10:16:05;;;;;;;6.82;4.30;;;13.50;99.90;;;;;;7385544;19;20578;-73
2023/04/07 10:18:33;;;;;;;5.80;3.95;;;13.50;99.90;;;;;;7384094;19;20135;-71
2023/04/07 10:21:06;;;;;;;5.10;3.83;;;13.40;99.90;;;;;;7385143;19;20506;-73
2023/04/07 10:23:47;;;;;;;5.55;3.88;;;13.30;99.90;;;;;;7383970;19;20174;-72
2023/04/07 10:26:20;;;;;;;8.10;4.38;;;13.40;99.90;;;;;;7384399;19;20202;-73
2023/04/07 10:28:50;;;;;;;6.32;3.58;;;13.50;99.90;;;;;;7385607;19;20139;-72
2023/04/07 10:31:16;;;;;;;6.32;4.43;;;13.50;99.90;;;;;;7386532;19;20463;-72
2023/04/07 10:33:45;;;;;;;4.33;3.40;;;13.60;99.90;;;;;;7386425;19;20694;-72
2023/04/07 10:36:12;;;;;;;6.15;3.90;;;13.50;99.90;;;;;;7382890;19;20489;-72
2023/04/07 10:38:38;;;;;;;6.93;3.90;;;13.50;99.90;;;;;;7383376;19;20135;-73
2023/04/07 10:41:35;;;;;;;7.07;3.77;;;13.40;99.90;;;;;;7383415;19;20158;-72
2023/04/07 10:44:06;;;;;;;6.70;3.70;;;13.30;99.90;;;;;;7385697;19;20127;-72
2023/04/07 10:46:47;;;;;;;9.18;4.07;;;13.30;99.90;;;;;;7383127;19;20159;-72
2023/04/07 10:49:15;;;;;;;6.57;3.70;;;13.30;99.90;;;;;;7385856;19;20142;-72
2023/04/07 10:51:43;;;;;;;4.10;3.63;;;13.30;99.90;;;;;;7385996;19;20143;-73
2023/04/07 10:54:19;;;;;;;7.03;3.53;;;13.20;99.90;;;;;;7384502;19;21377;-72
2023/04/07 10:57:09;;;;;;;5.85;3.70;;;13.50;99.90;;;;;;7381605;19;20142;-73
2023/04/07 10:59:40;;;;;;;4.93;3.78;;;13.40;99.90;;;;;;7391192;19;20157;-71
2023/04/07 11:02:12;;;;;;;4.55;3.05;;;13.60;99.90;;;;;;7391583;19;20131;-72
2023/04/07 11:04:44;;;;;;;5.90;3.50;;;13.70;99.90;;;;;;7388842;19;20149;-72
2023/04/07 11:07:10;;;;;;;5.85;4.03;;;13.80;99.90;;;;;;7392917;19;20146;-72
2023/04/07 11:09:37;;;;;;;6.20;3.58;;;13.70;99.90;;;;;;7392340;19;20238;-73
2023/04/07 11:12:03;;;;;;;5.38;3.92;;;13.80;99.90;;;;;;7391462;19;20126;-72
2023/04/07 11:14:30;;;;;;;4.88;3.65;;;13.50;99.90;;;;;;7391922;19;20575;-72
2023/04/07 11:16:57;;;;;;;3.83;3.20;;;13.80;99.90;;;;;;7392188;19;20478;-73
2023/04/07 11:19:24;;;;;;;5.32;3.80;;;14.10;99.90;;;;;;7391087;19;20150;-72
2023/04/07 11:21:50;;;;;;;6.45;3.42;;;14.20;99.90;;;;;;7392097;19;20146;-72
2023/04/07 11:24:36;;;;;;;6.47;3.38;;;14.00;99.90;;;;;;7391329;19;20318;-71
2023/04/07 11:27:02;;;;;;;5.38;3.30;;;13.90;99.90;;;;;;7389827;19;20131;-71
2023/04/07 11:29:32;;;;;;;5.20;2.92;;;13.90;99.90;;;;;;7390778;19;20527;-71
2023/04/07 11:32:00;;;;;;;4.57;3.55;;;13.90;99.90;;;;;;7389460;19;20239;-72
2023/04/07 11:34:30;;;;;;;5.18;3.28;;;13.80;99.90;;;;;;7391402;19;20157;-73
2023/04/07 11:36:58;;;;;;;7.00;3.88;;;13.70;99.90;;;;;;7390556;19;20146;-72
2023/04/07 11:39:32;;;;;;;4.35;3.25;;;13.60;99.90;;;;;;7392350;19;20130;-72
2023/04/07 11:41:58;;;;;;;5.78;3.72;;;13.40;99.90;;;;;;7388902;19;20182;-73
2023/04/07 11:44:25;;;;;;;6.30;3.85;;;13.40;99.90;;;;;;7390838;19;20165;-73
2023/04/07 11:46:55;;;;;;;5.95;3.38;;;13.30;99.90;;;;;;7390403;19;20158;-70
2023/04/07 11:49:25;;;;;;;5.07;3.77;;;13.30;99.90;;;;;;7388147;19;20209;-73
2023/04/07 11:51:59;;;;;;;6.88;3.50;;;13.40;99.90;;;;;;7390605;19;20142;-74
2023/04/07 11:54:25;;;;;;;4.95;3.55;;;13.40;99.90;;;;;;7390949;19;20209;-72
2023/04/07 11:56:54;;;;;;;6.47;3.72;;;13.50;99.90;;;;;;7390435;19;20158;-73
2023/04/07 11:59:21;;;;;;;6.82;3.60;;;13.40;99.90;;;;;;7389740;19;20484;-73
2023/04/07 12:01:49;;;;;;;7.90;3.60;;;13.30;99.90;;;;;;7389461;19;20516;-72
2023/04/07 12:04:16;;;;;;;4.45;3.40;;;13.30;99.90;;;;;;7391608;19;20489;-72
2023/04/07 12:06:42;;;;;;;6.43;3.70;;;13.20;99.90;;;;;;7391265;19;20153;-73
2023/04/07 12:09:29;;;;;;;6.38;4.22;;;13.10;99.90;;;;;;7388121;19;20150;-73
2023/04/07 12:11:56;;;;;;;6.05;4.40;;;13.10;99.90;;;;;;7389849;19;20161;-73
2023/04/07 12:14:23;;;;;;;4.97;4.00;;;13.00;99.90;;;;;;7391863;19;20145;-73
2023/04/07 12:16:49;;;;;;;5.50;3.78;;;12.90;99.90;;;;;;7390480;19;20171;-74
2023/04/07 12:19:15;;;;;;;8.40;4.63;;;12.80;99.90;;;;;;7391637;19;20142;-72
2023/04/07 12:21:42;;;;;;;7.78;4.75;;;12.70;99.90;;;;;;7391183;19;20191;-73
2023/04/07 12:24:08;;;;;;;5.68;3.70;;;12.70;99.90;;;;;;7390360;19;20131;-73
2023/04/07 12:26:34;;;;;;;6.00;4.13;;;12.60;99.90;;;;;;7390164;19;20174;-75
2023/04/07 12:29:03;;;;;;;7.75;3.85;;;12.60;99.90;;;;;;7389734;19;20881;-75
2023/04/07 12:31:33;;;;;;;3.05;2.33;;;12.70;99.90;;;;;;7389503;19;20142;-74
2023/04/07 12:33:59;;;;;;;4.13;2.03;;;12.50;99.90;;;;;;7393834;19;20145;-75
2023/04/07 12:36:28;;;;;;;3.33;2.40;;;12.60;99.90;;;;;;7390946;19;20131;-74
2023/04/07 12:38:55;;;;;;;4.07;2.45;;;12.60;99.90;;;;;;7390262;19;20134;-76
2023/04/07 12:41:21;;;;;;;3.30;2.57;;;12.50;99.90;;;;;;7389885;19;20175;-75
2023/04/07 12:43:47;;;;;;;4.35;3.08;;;12.50;99.90;;;;;;7389669;19;20160;-74
2023/04/07 12:46:13;;;;;;;5.45;3.50;;;12.70;99.90;;;;;;7388958;19;20593;-75
2023/04/07 12:48:39;;;;;;;4.67;2.90;;;12.70;99.90;;;;;;7390005;19;20147;-73
2023/04/07 12:51:05;;;;;;;3.97;2.90;;;12.70;99.90;;;;;;7390449;19;20147;-74
2023/04/07 12:53:31;;;;;;;4.18;2.60;;;12.70;99.90;;;;;;7387881;19;20198;-75